Time;durP1;ratioP1;P1;durP2;ratioP2;P2;SDS_P1;SDS_P2;PMS_P1;PMS_P2;Temp;Humidity;BMP_temperature;BMP_pressure;BME280_temperature;BME280_humidity;BME280_pressure;Samples;Min_cycle;Max_cycle;Signal;HPM_P1;HPM_P2
2023/06/01 00:00:24;;;;;;;10.20;5.87;;;16.30;13.70;;;;;;5027034;28;20479;-62
2023/06/01 00:02:51;;;;;;;9.97;5.97;;;16.30;14.00;;;;;;5009590;28;20522;-62
2023/06/01 00:05:18;;;;;;;10.97;5.60;;;16.20;14.00;;;;;;5009053;28;20456;-62
2023/06/01 00:07:46;;;;;;;12.30;5.77;;;16.20;13.80;;;;;;5007064;28;20473;-62
2023/06/01 00:10:13;;;;;;;9.27;6.40;;;16.20;13.80;;;;;;5007253;28;20464;-62
2023/06/01 00:12:40;;;;;;;12.97;6.33;;;16.20;14.30;;;;;;5005809;28;20487;-62
2023/06/01 00:15:08;;;;;;;12.50;5.57;;;16.10;13.90;;;;;;5008513;28;20471;-62
2023/06/01 00:17:35;;;;;;;10.17;6.07;;;16.10;13.80;;;;;;5009362;28;20960;-62
2023/06/01 00:20:05;;;;;;;12.60;6.20;;;16.10;13.90;;;;;;5004191;28;20471;-62
2023/06/01 00:22:34;;;;;;;11.97;5.77;;;16.10;13.70;;;;;;5007101;28;20461;-62
2023/06/01 00:25:02;;;;;;;11.87;5.97;;;16.10;13.50;;;;;;5008336;28;20474;-62
2023/06/01 00:27:28;;;;;;;10.93;5.20;;;16.00;13.50;;;;;;5016740;28;20511;-62
2023/06/01 00:29:55;;;;;;;14.93;6.57;;;16.00;13.50;;;;;;5011691;28;20487;-62
2023/06/01 00:32:22;;;;;;;14.93;5.93;;;16.00;13.40;;;;;;4996141;28;20475;-63
2023/06/01 00:34:48;;;;;;;12.77;5.07;;;16.00;13.50;;;;;;5008119;28;20463;-63
2023/06/01 00:37:15;;;;;;;11.10;5.20;;;16.00;13.40;;;;;;5008244;28;20945;-62
2023/06/01 00:39:42;;;;;;;11.13;6.63;;;16.00;13.70;;;;;;5001359;28;20479;-63
2023/06/01 00:42:10;;;;;;;13.40;6.60;;;15.90;13.90;;;;;;5006038;28;20491;-63
2023/06/01 00:44:36;;;;;;;14.17;5.50;;;15.90;14.00;;;;;;5007061;28;20464;-62
2023/06/01 00:47:04;;;;;;;11.73;7.07;;;15.90;14.20;;;;;;5004542;28;20470;-63
2023/06/01 00:49:31;;;;;;;9.83;6.33;;;15.80;14.30;;;;;;5006796;28;20590;-63
2023/06/01 00:51:57;;;;;;;13.23;5.77;;;15.80;14.50;;;;;;5001921;28;20472;-62
2023/06/01 00:54:25;;;;;;;9.73;5.73;;;15.80;14.60;;;;;;5003155;28;20463;-63
2023/06/01 00:56:52;;;;;;;11.30;5.53;;;15.80;14.80;;;;;;5006726;28;20498;-62
2023/06/01 00:59:21;;;;;;;10.43;6.27;;;15.70;14.70;;;;;;5008265;28;20519;-62
2023/06/01 01:01:47;;;;;;;8.63;4.63;;;15.70;14.40;;;;;;5004101;28;20490;-62
2023/06/01 01:04:25;;;;;;;9.50;5.83;;;15.60;14.40;;;;;;5000314;28;20468;-63
2023/06/01 01:07:01;;;;;;;8.60;5.20;;;15.70;14.10;;;;;;5008464;28;20538;-62
2023/06/01 01:09:36;;;;;;;11.33;5.80;;;15.60;14.10;;;;;;5006829;28;20486;-62
2023/06/01 01:12:08;;;;;;;10.50;5.30;;;15.60;14.10;;;;;;5004577;28;20463;-63
2023/06/01 01:14:40;;;;;;;12.03;5.10;;;15.50;14.30;;;;;;5006610;28;20471;-63
2023/06/01 01:17:14;;;;;;;12.27;5.60;;;15.50;14.30;;;;;;5006647;28;20463;-63
2023/06/01 01:19:54;;;;;;;11.37;5.60;;;15.50;14.30;;;;;;5008059;28;20487;-63
2023/06/01 01:22:30;;;;;;;10.23;5.53;;;15.40;14.30;;;;;;5001540;28;20508;-62
2023/06/01 01:25:18;;;;;;;12.27;5.70;;;15.40;14.10;;;;;;5005185;28;20977;-62
2023/06/01 01:28:00;;;;;;;9.03;6.23;;;15.40;14.00;;;;;;5006391;28;21153;-62
2023/06/01 01:30:30;;;;;;;9.30;6.03;;;15.40;14.00;;;;;;5005932;28;20468;-62
2023/06/01 01:33:00;;;;;;;10.00;6.90;;;15.40;13.80;;;;;;5003420;28;20475;-62
2023/06/01 01:35:28;;;;;;;7.83;5.43;;;15.40;14.00;;;;;;5006389;28;20456;-62
2023/06/01 01:37:56;;;;;;;10.83;6.73;;;15.40;13.70;;;;;;5015275;28;21015;-62
2023/06/01 01:40:23;;;;;;;11.40;5.70;;;15.40;14.10;;;;;;5005322;28;20464;-62
2023/06/01 01:42:52;;;;;;;10.53;6.00;;;15.40;13.80;;;;;;4998788;28;20483;-62
2023/06/01 01:45:19;;;;;;;11.60;5.13;;;15.30;14.00;;;;;;5005440;28;20467;-62
2023/06/01 01:47:55;;;;;;;9.00;5.70;;;15.30;14.20;;;;;;5007590;28;20468;-62
2023/06/01 01:50:27;;;;;;;8.10;5.10;;;15.30;14.30;;;;;;5004301;28;20495;-62
2023/06/01 01:52:55;;;;;;;11.93;5.10;;;15.30;14.40;;;;;;5001816;28;20453;-62
2023/06/01 01:55:24;;;;;;;9.33;5.20;;;15.20;14.30;;;;;;5009972;28;20459;-62
2023/06/01 01:57:51;;;;;;;8.83;5.47;;;15.20;14.30;;;;;;5008473;22;20464;-62
2023/06/01 02:00:19;;;;;;;9.57;4.73;;;15.10;14.30;;;;;;4995999;28;20505;-62
2023/06/01 02:02:46;;;;;;;9.37;5.30;;;15.10;14.30;;;;;;5006590;28;20486;-61
2023/06/01 02:05:14;;;;;;;11.13;5.00;;;15.10;14.30;;;;;;5007885;28;20456;-62
2023/06/01 02:07:41;;;;;;;12.10;5.50;;;15.10;14.20;;;;;;5005033;28;20528;-62
2023/06/01 02:10:08;;;;;;;9.60;5.00;;;15.10;14.10;;;;;;5000351;28;20464;-61
2023/06/01 02:12:35;;;;;;;8.93;5.00;;;15.10;14.10;;;;;;5003287;28;20451;-62
2023/06/01 02:15:02;;;;;;;9.23;5.40;;;15.10;14.00;;;;;;5018083;22;20491;-63
2023/06/01 02:17:28;;;;;;;8.27;4.70;;;15.00;14.20;;;;;;5007401;28;20460;-64
2023/06/01 02:19:55;;;;;;;11.73;5.63;;;15.00;14.40;;;;;;5009085;28;20478;-64
2023/06/01 02:22:23;;;;;;;9.77;5.60;;;14.90;14.40;;;;;;5009269;28;20472;-64
2023/06/01 02:24:50;;;;;;;10.77;5.00;;;14.90;14.40;;;;;;5006275;28;20464;-64
2023/06/01 02:27:16;;;;;;;8.20;4.90;;;14.90;14.30;;;;;;5011071;28;20471;-64
2023/06/01 02:29:43;;;;;;;9.23;5.47;;;14.90;14.30;;;;;;5008102;28;20830;-64
2023/06/01 02:32:10;;;;;;;8.90;5.40;;;14.90;14.30;;;;;;5026618;28;20478;-64
2023/06/01 02:34:37;;;;;;;11.43;5.10;;;14.90;14.50;;;;;;5027407;28;20471;-64
2023/06/01 02:37:04;;;;;;;8.77;4.87;;;14.90;14.60;;;;;;5034970;28;21010;-63
2023/06/01 02:39:32;;;;;;;8.67;4.90;;;14.80;14.60;;;;;;5026335;28;20529;-65
2023/06/01 02:42:00;;;;;;;10.87;5.90;;;14.80;15.00;;;;;;5023911;28;20479;-64
2023/06/01 02:44:27;;;;;;;8.77;5.20;;;14.80;15.00;;;;;;5031495;28;20553;-64
2023/06/01 02:46:54;;;;;;;10.70;5.83;;;14.80;15.00;;;;;;5022163;28;20498;-62
2023/06/01 02:49:20;;;;;;;9.50;5.53;;;14.80;15.30;;;;;;5028523;28;20478;-64
2023/06/01 02:51:47;;;;;;;13.37;5.60;;;14.70;15.30;;;;;;5032386;28;20492;-63
2023/06/01 02:54:14;;;;;;;9.70;5.73;;;14.70;15.40;;;;;;5026389;28;20464;-63
2023/06/01 02:56:42;;;;;;;10.80;5.80;;;14.70;15.40;;;;;;5030698;28;20465;-63
2023/06/01 02:59:09;;;;;;;11.93;7.27;;;14.70;15.40;;;;;;5029278;28;21081;-63
2023/06/01 03:01:35;;;;;;;12.60;7.27;;;14.70;15.20;;;;;;5019515;28;20471;-63
2023/06/01 03:04:03;;;;;;;11.50;6.50;;;14.70;15.10;;;;;;5012045;28;20491;-63
2023/06/01 03:06:31;;;;;;;14.47;6.53;;;14.70;15.30;;;;;;5012832;28;20463;-63
2023/06/01 03:08:58;;;;;;;13.70;6.97;;;14.70;15.00;;;;;;5010386;28;20511;-64
2023/06/01 03:11:25;;;;;;;13.33;6.77;;;14.60;15.30;;;;;;5012749;28;20463;-64
2023/06/01 03:13:53;;;;;;;10.60;6.33;;;14.60;15.20;;;;;;5010534;28;20488;-64
2023/06/01 03:16:20;;;;;;;11.20;5.70;;;14.60;15.40;;;;;;5007991;28;20474;-64
2023/06/01 03:18:46;;;;;;;11.10;6.10;;;14.60;15.50;;;;;;5012742;28;20506;-64
2023/06/01 03:21:13;;;;;;;9.80;5.50;;;14.60;15.40;;;;;;5010675;28;20464;-64
2023/06/01 03:23:43;;;;;;;10.27;5.23;;;14.60;15.60;;;;;;5011990;28;20464;-63
2023/06/01 03:26:12;;;;;;;11.70;6.93;;;14.50;15.80;;;;;;5010013;28;20459;-63
2023/06/01 03:28:39;;;;;;;10.23;6.30;;;14.50;15.70;;;;;;5011109;28;21087;-63
2023/06/01 03:31:07;;;;;;;14.80;7.77;;;14.50;15.70;;;;;;5009247;28;20483;-62
2023/06/01 03:33:34;;;;;;;15.10;6.97;;;14.50;15.80;;;;;;5008723;28;20533;-62
2023/06/01 03:36:01;;;;;;;11.10;6.87;;;14.50;15.90;;;;;;5001822;28;20472;-62
2023/06/01 03:38:28;;;;;;;10.30;6.13;;;14.50;15.80;;;;;;5009331;28;20483;-63
2023/06/01 03:40:54;;;;;;;12.53;5.50;;;14.50;15.90;;;;;;5006958;28;20987;-62
2023/06/01 03:43:21;;;;;;;12.70;6.27;;;14.50;15.90;;;;;;5006561;28;20494;-63
2023/06/01 03:45:48;;;;;;;14.90;6.03;;;14.50;15.70;;;;;;5011198;28;21043;-64
2023/06/01 03:48:16;;;;;;;10.73;5.50;;;14.50;15.80;;;;;;5011401;28;20487;-62
2023/06/01 03:50:43;;;;;;;11.27;6.20;;;14.50;15.80;;;;;;5008826;28;20458;-63
2023/06/01 03:53:10;;;;;;;11.37;5.40;;;14.60;15.80;;;;;;5009997;28;20474;-63
2023/06/01 03:55:37;;;;;;;9.97;5.37;;;14.60;15.90;;;;;;5004105;28;20471;-63
2023/06/01 03:58:04;;;;;;;9.83;5.60;;;14.60;15.70;;;;;;5008675;28;20550;-63
2023/06/01 04:00:31;;;;;;;11.77;5.43;;;14.70;15.70;;;;;;5011443;28;20508;-63
2023/06/01 04:03:00;;;;;;;11.57;5.90;;;14.70;15.80;;;;;;5008217;28;20476;-62
2023/06/01 04:05:28;;;;;;;11.40;6.47;;;14.70;15.90;;;;;;5008133;28;20460;-63
2023/06/01 04:07:56;;;;;;;11.10;7.40;;;14.70;15.50;;;;;;5008775;28;20866;-62
2023/06/01 04:10:23;;;;;;;11.40;7.53;;;14.80;15.50;;;;;;5003163;28;20477;-63
2023/06/01 04:12:51;;;;;;;9.67;6.70;;;14.80;15.60;;;;;;5009192;28;20466;-62
2023/06/01 04:15:20;;;;;;;11.07;6.90;;;14.90;15.60;;;;;;5008511;28;20993;-63
2023/06/01 04:17:47;;;;;;;8.90;6.30;;;14.90;15.50;;;;;;5010036;28;20454;-62
2023/06/01 04:20:17;;;;;;;11.50;7.03;;;15.00;15.20;;;;;;5004815;28;20462;-62
2023/06/01 04:22:46;;;;;;;10.80;6.80;;;15.10;15.40;;;;;;5010897;28;20508;-63
2023/06/01 04:25:16;;;;;;;10.00;6.37;;;15.10;15.20;;;;;;5000861;28;20479;-63
2023/06/01 04:27:45;;;;;;;9.20;5.63;;;15.40;15.30;;;;;;5001107;28;20471;-62
2023/06/01 04:30:13;;;;;;;11.27;5.30;;;16.50;14.40;;;;;;4999182;28;20504;-63
2023/06/01 04:32:41;;;;;;;10.97;5.40;;;17.80;12.00;;;;;;5003461;28;20491;-63
2023/06/01 04:35:09;;;;;;;12.03;5.27;;;19.00;9.60;;;;;;5004272;28;20472;-62
2023/06/01 04:37:37;;;;;;;10.77;5.57;;;20.00;7.20;;;;;;5003925;28;20467;-62
2023/06/01 04:40:08;;;;;;;12.10;5.67;;;21.00;5.20;;;;;;5007598;28;20464;-62
2023/06/01 04:42:35;;;;;;;9.10;4.93;;;21.80;3.50;;;;;;5007495;28;20565;-62
2023/06/01 04:45:04;;;;;;;8.53;5.10;;;22.30;2.20;;;;;;5006852;28;20467;-62
2023/06/01 04:47:31;;;;;;;9.00;5.60;;;22.00;2.00;;;;;;5005701;28;20459;-62
2023/06/01 04:49:58;;;;;;;11.13;6.30;;;21.10;3.20;;;;;;5009797;28;20482;-63
2023/06/01 04:52:24;;;;;;;11.40;5.83;;;20.80;4.30;;;;;;5006263;28;20467;-62
2023/06/01 04:54:51;;;;;;;11.57;5.33;;;21.80;3.70;;;;;;5003518;28;20475;-63
2023/06/01 04:57:19;;;;;;;8.60;5.10;;;23.30;1.90;;;;;;5010150;28;20915;-63
2023/06/01 04:59:46;;;;;;;10.20;6.00;;;24.70;1.00;;;;;;4999295;28;20874;-63
2023/06/01 05:02:13;;;;;;;10.33;5.73;;;25.70;1.00;;;;;;5003565;28;20534;-63
2023/06/01 05:04:40;;;;;;;12.63;5.80;;;26.70;1.00;;;;;;5001858;28;20509;-62
2023/06/01 05:07:07;;;;;;;10.23;5.40;;;27.60;1.00;;;;;;5009004;28;20506;-62
2023/06/01 05:09:34;;;;;;;10.93;5.80;;;28.40;1.00;;;;;;5003709;28;20996;-62
2023/06/01 05:12:01;;;;;;;8.83;5.10;;;29.10;1.00;;;;;;4999295;28;20815;-63
2023/06/01 05:14:29;;;;;;;8.87;5.67;;;29.80;1.00;;;;;;5000127;28;20564;-64
2023/06/01 05:16:56;;;;;;;12.07;6.10;;;30.50;1.00;;;;;;4993864;28;20476;-63
2023/06/01 05:19:23;;;;;;;7.57;5.33;;;31.20;1.00;;;;;;4996526;28;20479;-65
2023/06/01 05:21:49;;;;;;;7.53;5.20;;;31.80;1.00;;;;;;4995024;28;20467;-64
2023/06/01 05:24:16;;;;;;;8.63;5.10;;;32.50;1.00;;;;;;5000531;28;20479;-64
2023/06/01 05:26:43;;;;;;;7.40;4.80;;;33.10;1.00;;;;;;4998288;28;20956;-64
2023/06/01 05:29:10;;;;;;;10.37;5.57;;;33.80;1.00;;;;;;4999309;28;20489;-63
2023/06/01 05:31:38;;;;;;;8.13;4.87;;;34.30;1.00;;;;;;4998047;28;21137;-64
2023/06/01 05:34:05;;;;;;;8.67;5.37;;;34.90;1.00;;;;;;5005142;28;20467;-64
2023/06/01 05:36:32;;;;;;;7.87;4.93;;;35.40;1.00;;;;;;5002557;28;20495;-65
2023/06/01 05:38:59;;;;;;;8.90;5.50;;;35.90;1.00;;;;;;5002726;28;20479;-64
2023/06/01 05:41:27;;;;;;;8.07;5.37;;;36.50;1.00;;;;;;5006634;28;20906;-63
2023/06/01 05:43:54;;;;;;;8.23;5.10;;;37.00;1.00;;;;;;5004390;28;20554;-64
2023/06/01 05:46:20;;;;;;;9.00;5.20;;;37.50;1.00;;;;;;4998041;28;20490;-64
2023/06/01 05:48:48;;;;;;;9.37;5.70;;;38.00;1.00;;;;;;5005938;28;21040;-63
2023/06/01 05:51:15;;;;;;;8.00;4.67;;;38.40;1.00;;;;;;5004048;28;20460;-64
2023/06/01 05:53:42;;;;;;;8.77;5.03;;;38.70;1.00;;;;;;5004562;28;20459;-63
2023/06/01 05:56:09;;;;;;;8.43;4.50;;;39.20;1.00;;;;;;5003832;28;20480;-63
2023/06/01 05:58:35;;;;;;;8.63;4.87;;;39.70;1.00;;;;;;5001800;28;20484;-64
2023/06/01 06:01:03;;;;;;;9.37;4.53;;;40.30;1.00;;;;;;5004416;28;21098;-62
2023/06/01 06:03:29;;;;;;;8.07;4.90;;;40.70;1.00;;;;;;5001278;28;20488;-62
2023/06/01 06:05:57;;;;;;;7.73;4.70;;;41.30;1.00;;;;;;5000339;28;20464;-63
2023/06/01 06:08:24;;;;;;;6.67;4.60;;;41.70;1.00;;;;;;4999544;28;20491;-65
2023/06/01 06:10:51;;;;;;;6.73;5.00;;;42.10;1.00;;;;;;5002689;28;20466;-64
2023/06/01 06:13:18;;;;;;;9.60;4.70;;;42.30;1.00;;;;;;5003738;28;20460;-65
2023/06/01 06:15:45;;;;;;;8.47;4.70;;;42.60;1.00;;;;;;4995918;28;20476;-65
2023/06/01 06:18:11;;;;;;;8.77;4.97;;;42.80;1.00;;;;;;5001254;28;20490;-65
2023/06/01 06:20:38;;;;;;;9.40;4.87;;;43.00;1.00;;;;;;5002062;28;20472;-63
2023/06/01 06:23:06;;;;;;;8.13;5.10;;;43.40;1.00;;;;;;5001060;28;20499;-62
2023/06/01 06:25:33;;;;;;;7.43;4.23;;;43.70;1.00;;;;;;5003551;28;20461;-62
2023/06/01 06:28:00;;;;;;;9.03;4.53;;;44.20;1.00;;;;;;5004412;28;20480;-62
2023/06/01 06:30:27;;;;;;;8.50;5.50;;;44.70;1.00;;;;;;5002837;28;20541;-63
2023/06/01 06:32:54;;;;;;;6.47;4.70;;;45.20;1.00;;;;;;5004941;28;20468;-62
2023/06/01 06:35:20;;;;;;;7.43;5.10;;;45.50;1.00;;;;;;5004961;28;20471;-62
2023/06/01 06:37:47;;;;;;;10.90;5.10;;;45.80;1.00;;;;;;5008566;28;20459;-62
2023/06/01 06:40:17;;;;;;;9.03;5.40;;;46.20;1.00;;;;;;5007384;28;20490;-62
2023/06/01 06:42:44;;;;;;;9.43;4.40;;;46.60;1.00;;;;;;5005612;28;20482;-63
2023/06/01 06:45:11;;;;;;;9.60;5.17;;;47.00;1.00;;;;;;5005209;28;20464;-64
2023/06/01 06:47:38;;;;;;;7.73;3.97;;;47.10;1.00;;;;;;5001930;28;20464;-63
2023/06/01 06:50:07;;;;;;;9.00;5.60;;;47.50;1.00;;;;;;5001951;28;20464;-63
2023/06/01 06:52:34;;;;;;;10.03;4.27;;;48.00;1.00;;;;;;5005125;28;20514;-63
2023/06/01 06:55:00;;;;;;;8.07;4.07;;;48.50;1.00;;;;;;5006414;28;20839;-66
2023/06/01 06:57:28;;;;;;;8.40;4.30;;;48.80;1.00;;;;;;5006500;28;20474;-63
2023/06/01 06:59:55;;;;;;;10.57;3.93;;;49.10;1.00;;;;;;5012046;28;20483;-63
2023/06/01 07:02:22;;;;;;;10.70;3.83;;;49.50;1.00;;;;;;5005474;28;20482;-63
2023/06/01 07:04:49;;;;;;;7.80;4.30;;;49.50;1.00;;;;;;5009966;28;20467;-63
2023/06/01 07:07:16;;;;;;;8.33;5.50;;;49.40;1.00;;;;;;5001333;28;20470;-63
2023/06/01 07:09:43;;;;;;;7.40;4.27;;;49.80;1.00;;;;;;5006076;28;20495;-63
2023/06/01 07:12:10;;;;;;;9.73;4.47;;;50.40;1.00;;;;;;5004418;28;20460;-63
2023/06/01 07:14:38;;;;;;;6.60;4.20;;;50.80;1.00;;;;;;5002888;28;20482;-63
2023/06/01 07:17:05;;;;;;;8.40;4.33;;;51.20;1.00;;;;;;4999151;28;20869;-63
2023/06/01 07:19:33;;;;;;;7.70;4.00;;;50.70;1.00;;;;;;5003762;28;20480;-63
2023/06/01 07:22:00;;;;;;;8.50;4.30;;;50.40;1.00;;;;;;5004693;28;20964;-64
2023/06/01 07:24:27;;;;;;;8.63;4.17;;;50.40;1.00;;;;;;5005183;28;20479;-64
2023/06/01 07:26:57;;;;;;;6.03;3.77;;;50.40;1.00;;;;;;5006910;28;20459;-64
2023/06/01 07:29:24;;;;;;;9.90;5.00;;;50.80;1.00;;;;;;5007989;28;20566;-65
2023/06/01 07:31:53;;;;;;;6.47;4.03;;;50.70;1.00;;;;;;5003024;28;20530;-64
2023/06/01 07:34:19;;;;;;;7.30;4.37;;;50.70;1.00;;;;;;5003129;28;20467;-65
2023/06/01 07:36:47;;;;;;;7.83;4.83;;;50.80;1.00;;;;;;5008216;28;21246;-64
2023/06/01 07:39:14;;;;;;;12.00;4.00;;;51.10;1.00;;;;;;5003939;28;20575;-64
2023/06/01 07:41:42;;;;;;;6.17;4.30;;;51.90;1.00;;;;;;5006398;28;20491;-65
2023/06/01 07:44:09;;;;;;;5.40;3.40;;;52.40;1.00;;;;;;5008860;28;20478;-64
2023/06/01 07:46:35;;;;;;;7.37;4.17;;;52.20;1.00;;;;;;5000742;28;20467;-64
2023/06/01 07:49:04;;;;;;;8.23;4.33;;;52.30;1.00;;;;;;4999401;28;20479;-65
2023/06/01 07:51:31;;;;;;;6.87;4.40;;;52.50;1.00;;;;;;5007112;28;20522;-62
2023/06/01 07:53:59;;;;;;;5.97;3.97;;;52.70;1.00;;;;;;5005419;28;20873;-63
2023/06/01 07:56:27;;;;;;;8.03;3.97;;;53.00;1.00;;;;;;5006242;28;20490;-64
2023/06/01 07:58:54;;;;;;;6.47;4.10;;;53.00;1.00;;;;;;5002343;28;20479;-64
2023/06/01 08:01:21;;;;;;;8.40;4.10;;;53.10;1.00;;;;;;5002505;28;20479;-65
2023/06/01 08:03:48;;;;;;;8.73;4.57;;;53.30;1.00;;;;;;5005875;28;20530;-64
2023/06/01 08:06:17;;;;;;;10.03;4.23;;;53.90;1.00;;;;;;5002056;28;20466;-64
2023/06/01 08:08:45;;;;;;;7.43;4.10;;;54.30;1.00;;;;;;5003864;28;20506;-64
2023/06/01 08:11:11;;;;;;;9.37;4.93;;;54.30;1.00;;;;;;5006672;28;20470;-64
2023/06/01 08:13:38;;;;;;;6.10;3.50;;;54.20;1.00;;;;;;5000517;28;20460;-65
2023/06/01 08:16:05;;;;;;;7.60;4.67;;;54.70;1.00;;;;;;5004307;28;20490;-64
2023/06/01 08:18:33;;;;;;;6.13;3.90;;;55.00;1.00;;;;;;5002531;28;20561;-65
2023/06/01 08:21:00;;;;;;;7.30;4.10;;;54.90;1.00;;;;;;5003216;28;20985;-65
2023/06/01 08:23:28;;;;;;;10.10;4.77;;;54.90;1.00;;;;;;5004902;28;20483;-65
2023/06/01 08:25:55;;;;;;;6.57;4.33;;;55.30;1.00;;;;;;5006816;28;20471;-63
2023/06/01 08:28:21;;;;;;;7.00;3.87;;;55.70;1.00;;;;;;5003222;28;20479;-64
2023/06/01 08:30:48;;;;;;;11.70;5.40;;;55.90;1.00;;;;;;5004240;28;20563;-64
2023/06/01 08:33:15;;;;;;;7.40;4.97;;;55.80;1.00;;;;;;5024269;22;20498;-65
2023/06/01 08:35:42;;;;;;;6.67;4.10;;;56.10;1.00;;;;;;5012796;28;20473;-65
2023/06/01 08:38:09;;;;;;;7.00;4.83;;;56.30;1.00;;;;;;5001315;28;20507;-65
2023/06/01 08:40:39;;;;;;;7.13;4.03;;;56.50;1.00;;;;;;5001674;28;20208;-65
2023/06/01 08:43:14;;;;;;;8.43;4.37;;;56.70;1.00;;;;;;5002419;28;20899;-65
2023/06/01 08:45:42;;;;;;;6.30;3.90;;;56.90;1.00;;;;;;5006795;28;20545;-64
2023/06/01 08:48:09;;;;;;;6.70;4.13;;;57.00;1.00;;;;;;5001873;28;20224;-65
2023/06/01 08:50:37;;;;;;;7.20;4.37;;;56.70;1.00;;;;;;5002522;28;20251;-65
2023/06/01 08:53:05;;;;;;;5.60;3.70;;;56.50;1.00;;;;;;5003206;28;20458;-66
2023/06/01 08:55:32;;;;;;;8.63;4.63;;;56.60;1.00;;;;;;5001839;28;20315;-65
2023/06/01 08:58:00;;;;;;;7.10;4.47;;;56.70;1.00;;;;;;5004212;28;20233;-65
2023/06/01 09:00:28;;;;;;;7.00;4.18;;;57.00;1.00;;;;;;5008134;28;20284;-66
2023/06/01 09:02:55;;;;;;;6.50;3.80;;;57.30;1.00;;;;;;5021527;28;20228;-65
2023/06/01 09:05:21;;;;;;;6.00;4.43;;;57.20;1.00;;;;;;5018143;28;20204;-65
2023/06/01 09:07:49;;;;;;;9.53;4.63;;;57.00;1.00;;;;;;5019514;28;20204;-65
2023/06/01 09:10:16;;;;;;;7.53;4.83;;;56.70;1.00;;;;;;5026837;28;20200;-66
2023/06/01 09:12:52;;;;;;;6.70;4.53;;;56.60;1.00;;;;;;5025787;28;20535;-65
2023/06/01 09:15:21;;;;;;;6.90;4.83;;;56.10;1.00;;;;;;5023832;28;20211;-65
2023/06/01 09:17:50;;;;;;;8.77;4.27;;;55.80;1.00;;;;;;5025937;28;20477;-65
2023/06/01 09:20:24;;;;;;;8.40;4.30;;;55.60;1.00;;;;;;5022703;28;20466;-65
2023/06/01 09:22:51;;;;;;;6.10;4.00;;;55.40;1.00;;;;;;5030900;28;20504;-64
2023/06/01 09:25:23;;;;;;;14.33;4.97;;;55.20;1.00;;;;;;5024827;28;20478;-65
2023/06/01 09:27:52;;;;;;;7.03;4.23;;;54.30;1.00;;;;;;5020856;28;20493;-65
2023/06/01 09:30:21;;;;;;;9.87;4.53;;;52.30;1.00;;;;;;5024257;28;20817;-65
2023/06/01 09:32:50;;;;;;;7.53;4.80;;;50.10;1.00;;;;;;5023907;28;20454;-65
2023/06/01 09:35:17;;;;;;;9.13;4.37;;;48.00;1.00;;;;;;5021667;28;20926;-64
2023/06/01 09:37:56;;;;;;;6.70;4.10;;;46.10;1.00;;;;;;5024485;28;20468;-65
2023/06/01 09:40:23;;;;;;;6.73;4.23;;;44.10;1.00;;;;;;5024205;28;20487;-64
2023/06/01 09:42:50;;;;;;;7.00;4.63;;;42.30;1.00;;;;;;5027659;28;20826;-65
2023/06/01 09:45:21;;;;;;;8.87;5.30;;;40.90;1.00;;;;;;5014947;28;21200;-65
2023/06/01 09:47:49;;;;;;;9.27;4.47;;;39.80;1.00;;;;;;5020792;28;20478;-65
2023/06/01 09:50:36;;;;;;;9.83;4.30;;;38.80;1.00;;;;;;5022724;28;20573;-64
2023/06/01 09:53:05;;;;;;;9.40;4.90;;;37.60;1.00;;;;;;5022635;28;20466;-67
2023/06/01 09:55:32;;;;;;;12.07;5.33;;;36.70;1.00;;;;;;5022344;28;21067;-66
2023/06/01 09:58:20;;;;;;;8.97;4.93;;;35.80;1.00;;;;;;5019953;28;20482;-66
2023/06/01 10:00:50;;;;;;;8.00;5.20;;;35.00;1.00;;;;;;5023678;28;20586;-64
2023/06/01 10:03:19;;;;;;;9.90;5.30;;;34.30;1.00;;;;;;5023882;28;20999;-63
2023/06/01 10:05:46;;;;;;;8.80;5.23;;;33.70;1.00;;;;;;5023650;28;20461;-64
2023/06/01 10:08:15;;;;;;;8.67;4.60;;;33.20;1.00;;;;;;5027937;28;20485;-64
2023/06/01 10:10:44;;;;;;;8.40;4.93;;;32.80;1.00;;;;;;5027759;28;20470;-64
2023/06/01 10:13:12;;;;;;;7.27;5.07;;;32.40;1.00;;;;;;5026978;28;20462;-65
2023/06/01 10:15:38;;;;;;;8.60;5.10;;;32.20;1.00;;;;;;5026986;28;20854;-64
2023/06/01 10:18:07;;;;;;;10.27;4.77;;;31.90;1.00;;;;;;5025542;28;20872;-64
2023/06/01 10:20:35;;;;;;;7.27;4.40;;;31.60;1.00;;;;;;5024679;28;20470;-64
2023/06/01 10:23:02;;;;;;;8.10;5.20;;;31.40;1.00;;;;;;5024623;28;20460;-66
2023/06/01 10:25:32;;;;;;;9.17;4.83;;;31.10;1.00;;;;;;5027470;28;20479;-66
2023/06/01 10:28:03;;;;;;;9.97;4.87;;;30.80;1.00;;;;;;5025811;28;20478;-66
2023/06/01 10:30:30;;;;;;;8.80;4.70;;;30.60;1.00;;;;;;5026129;28;20470;-66
2023/06/01 10:32:56;;;;;;;10.53;5.40;;;30.50;1.00;;;;;;5028075;28;20467;-65
2023/06/01 10:35:54;;;;;;;9.17;4.77;;;30.40;1.00;;;;;;5025629;28;20470;-66
2023/06/01 10:38:25;;;;;;;8.10;5.00;;;30.30;1.00;;;;;;5024777;28;20494;-65
2023/06/01 10:40:52;;;;;;;10.13;5.10;;;30.20;1.00;;;;;;5029607;28;20471;-64
2023/06/01 10:43:41;;;;;;;9.10;4.80;;;30.10;1.00;;;;;;5026881;28;21007;-64
2023/06/01 10:46:34;;;;;;;8.40;5.70;;;29.90;1.00;;;;;;5027014;28;20467;-64
2023/06/01 10:49:01;;;;;;;7.47;5.13;;;29.90;1.00;;;;;;5026537;28;21002;-64
2023/06/01 10:51:30;;;;;;;7.97;4.67;;;29.80;1.00;;;;;;5026396;28;20962;-64
2023/06/01 10:54:38;;;;;;;12.80;5.40;;;29.80;1.00;;;;;;5024234;28;20458;-65
2023/06/01 10:57:24;;;;;;;10.37;5.50;;;29.70;1.00;;;;;;5026414;28;20876;-65
2023/06/01 11:00:12;;;;;;;8.93;5.17;;;29.70;1.00;;;;;;5025327;28;20511;-64
2023/06/01 11:02:50;;;;;;;9.27;5.10;;;29.60;1.00;;;;;;5026606;28;20483;-64
2023/06/01 11:05:36;;;;;;;8.40;5.27;;;29.60;1.00;;;;;;5024794;28;20476;-64
2023/06/01 11:08:05;;;;;;;9.20;5.37;;;29.60;1.00;;;;;;5026849;28;20486;-64
2023/06/01 11:10:59;;;;;;;9.90;4.90;;;29.50;1.00;;;;;;5027387;28;20493;-64
2023/06/01 11:13:29;;;;;;;8.93;5.27;;;29.50;1.00;;;;;;5022632;28;20476;-63
2023/06/01 11:16:31;;;;;;;11.40;5.60;;;29.40;1.00;;;;;;5019755;28;20459;-66
2023/06/01 11:18:59;;;;;;;7.60;4.97;;;29.30;1.00;;;;;;5022356;28;20532;-66
2023/06/01 11:21:27;;;;;;;11.10;5.50;;;29.10;1.00;;;;;;5026649;28;20463;-66
2023/06/01 11:23:57;;;;;;;7.47;4.67;;;28.90;1.00;;;;;;5027923;28;20499;-67
2023/06/01 11:26:27;;;;;;;7.50;4.67;;;28.90;1.00;;;;;;5028051;28;20462;-66
2023/06/01 11:29:03;;;;;;;8.53;5.47;;;28.90;1.00;;;;;;5023104;28;20491;-66
2023/06/01 11:31:35;;;;;;;12.03;5.60;;;28.90;1.00;;;;;;5024603;28;20478;-65
2023/06/01 11:34:03;;;;;;;7.50;4.60;;;28.80;1.00;;;;;;5023025;28;20574;-65
2023/06/01 11:36:30;;;;;;;9.73;4.40;;;28.90;1.00;;;;;;5027183;28;20569;-65
2023/06/01 11:38:59;;;;;;;10.43;4.73;;;28.70;1.00;;;;;;5029316;28;20569;-65
2023/06/01 11:41:26;;;;;;;7.93;4.73;;;28.70;1.00;;;;;;5027840;28;20499;-65
2023/06/01 11:43:56;;;;;;;7.67;4.73;;;28.70;1.00;;;;;;5027287;28;20459;-63
2023/06/01 11:46:24;;;;;;;9.10;4.90;;;28.60;1.00;;;;;;5026140;28;20462;-62
2023/06/01 11:49:01;;;;;;;8.97;4.60;;;28.50;1.00;;;;;;5025983;28;20514;-63
2023/06/01 11:51:29;;;;;;;8.60;5.20;;;28.50;1.00;;;;;;5025653;28;20463;-63
2023/06/01 11:53:56;;;;;;;10.23;5.30;;;28.60;1.00;;;;;;5025018;28;20472;-63
2023/06/01 11:56:30;;;;;;;14.30;5.10;;;28.50;1.00;;;;;;5025678;28;20576;-63
2023/06/01 11:59:01;;;;;;;13.53;5.60;;;28.40;1.00;;;;;;5028321;28;20482;-63
2023/06/01 12:01:28;;;;;;;8.43;4.93;;;28.40;1.00;;;;;;5026251;28;20475;-64
2023/06/01 12:03:56;;;;;;;7.80;5.57;;;28.30;1.00;;;;;;5024850;28;20477;-64
2023/06/01 12:06:26;;;;;;;10.37;6.23;;;28.20;1.00;;;;;;5024640;28;20475;-64
2023/06/01 12:08:54;;;;;;;9.87;5.03;;;28.20;1.00;;;;;;5021241;28;20998;-65
2023/06/01 12:11:26;;;;;;;10.03;5.87;;;28.20;1.00;;;;;;5026352;28;21358;-65
2023/06/01 12:13:54;;;;;;;8.93;4.73;;;28.20;1.00;;;;;;5027183;28;20470;-65
2023/06/01 12:16:21;;;;;;;11.10;5.37;;;28.10;1.00;;;;;;5023225;28;20470;-65
2023/06/01 12:18:48;;;;;;;8.80;5.20;;;28.10;1.00;;;;;;5025052;28;20487;-65
2023/06/01 12:21:16;;;;;;;9.10;4.60;;;28.00;1.00;;;;;;5021537;28;20464;-65
2023/06/01 12:23:43;;;;;;;9.57;5.30;;;28.10;1.00;;;;;;5026117;28;20470;-65
2023/06/01 12:26:10;;;;;;;8.40;5.00;;;28.00;1.00;;;;;;5025089;28;20945;-64
2023/06/01 12:28:52;;;;;;;10.90;5.73;;;27.90;1.00;;;;;;5034345;28;23685;-65
2023/06/01 12:31:21;;;;;;;8.00;5.30;;;27.80;1.00;;;;;;5026585;28;20482;-65
2023/06/01 12:33:49;;;;;;;9.50;4.73;;;27.80;1.00;;;;;;5024177;28;20979;-64
2023/06/01 12:36:32;;;;;;;7.70;5.07;;;27.80;1.00;;;;;;5025421;28;20955;-65
2023/06/01 12:39:00;;;;;;;8.27;5.27;;;27.60;1.00;;;;;;5024696;28;20578;-64
2023/06/01 12:41:27;;;;;;;7.33;5.07;;;27.50;1.00;;;;;;5021874;28;20470;-65
2023/06/01 12:43:54;;;;;;;8.30;4.73;;;27.50;1.00;;;;;;5025734;28;20470;-64
2023/06/01 12:46:24;;;;;;;13.60;6.23;;;27.50;1.00;;;;;;5022444;28;20495;-64
2023/06/01 12:48:52;;;;;;;9.23;5.37;;;27.50;1.00;;;;;;5025679;28;20482;-65
2023/06/01 12:51:19;;;;;;;9.30;5.17;;;27.60;1.00;;;;;;5025819;28;20463;-64
2023/06/01 12:53:47;;;;;;;9.97;5.30;;;27.50;1.00;;;;;;5024979;28;20466;-65
2023/06/01 12:56:15;;;;;;;9.93;5.50;;;27.50;1.00;;;;;;5023912;28;20467;-65
2023/06/01 12:58:41;;;;;;;7.27;4.67;;;27.50;1.00;;;;;;5027056;28;20896;-64